Denver, Colorado
Traffic Map
Current Weather Conditions
Denver, Colorado
Scattered Clouds
Scattered Clouds
56°
Feels Like: 56°
Wind Chill: 56° Ceiling: Unl
Heat Index: 56° Visibility: 10mi
Dew Point: 45° Wind: 5mph
Humidity: 67% Direction: 210° (SSW)
Pressure: 30.01in Gusts: 0mph
Raw Report DataKDEN 230853Z 21004KT 10SM SCT220 13/07 A3001 RMK AO2 SLP091 T01330072 53005
Traffic Incident Summary
Active as of:
Severity:
Category:
InformationThere was an issue retrieving the traffic information for this location. Please try a different location or try again shortly.
Advertisements